createdAt,value
2023-03-25T00:03:37.686Z,99079.78
2023-03-25T00:08:39.778Z,99088.28
2023-03-25T00:13:42.149Z,99078.22
2023-03-25T00:18:43.952Z,99064.72
2023-03-25T00:23:46.780Z,99065.63
2023-03-25T00:28:49.325Z,99076.59
2023-03-25T00:33:51.345Z,99086.78
2023-03-25T00:38:53.302Z,99080.97
2023-03-25T00:43:57.388Z,99086.78
2023-03-25T00:49:00.115Z,99074.25
2023-03-25T00:54:02.194Z,99075.13
2023-03-25T00:59:03.803Z,99060.84
2023-03-25T01:04:12.057Z,99053.19
2023-03-25T01:09:15.486Z,99049.06
2023-03-25T01:14:20.889Z,99047.44
2023-03-25T01:19:23.288Z,99046.63
2023-03-25T01:24:25.828Z,99051.75
2023-03-25T01:29:27.530Z,99061.84
2023-03-25T01:34:32.566Z,99051.69
2023-03-25T01:39:34.447Z,99044.97
2023-03-25T01:44:39.186Z,99060.94
2023-03-25T01:49:44.580Z,99053.53
2023-03-25T01:54:47.579Z,99050.91
2023-03-25T01:59:51.887Z,99050.19
2023-03-25T02:05:25.983Z,99067.91
2023-03-25T02:10:27.689Z,99063.72
2023-03-25T02:15:44.852Z,99066.28
2023-03-25T02:20:59.405Z,99067.13
2023-03-25T02:26:13.280Z,99072.19
2023-03-25T02:31:34.834Z,99070.50
2023-03-25T02:36:57.141Z,99065.53
2023-03-25T02:42:03.951Z,99072.28
2023-03-25T02:47:17.253Z,99057.97
2023-03-25T02:52:29.129Z,99064.00
2023-03-25T02:57:36.537Z,99053.13
2023-03-25T03:02:39.181Z,99050.69
2023-03-25T03:07:44.744Z,99065.78
2023-03-25T03:12:49.418Z,99059.97
2023-03-25T03:18:13.439Z,99054.97
2023-03-25T03:23:30.408Z,99066.78
2023-03-25T03:28:46.542Z,99070.25
2023-03-25T03:33:53.542Z,99077.81
2023-03-25T03:39:01.645Z,99076.06
2023-03-25T03:44:16.984Z,99087.88
2023-03-25T03:49:23.785Z,99087.91
2023-03-25T03:54:31.660Z,99103.03
2023-03-25T03:59:47.758Z,99103.03
2023-03-25T04:04:51.020Z,99099.75
2023-03-25T04:10:02.851Z,99108.13
2023-03-25T04:15:06.958Z,99092.22
2023-03-25T04:20:13.518Z,99088.81
2023-03-25T04:25:15.322Z,99094.75
2023-03-25T04:30:19.667Z,99109.06
2023-03-25T04:35:21.616Z,99114.16
2023-03-25T04:40:25.655Z,99117.53
2023-03-25T04:45:28.826Z,99120.94
2023-03-25T04:50:31.641Z,99116.69
2023-03-25T04:55:34.680Z,99116.75
2023-03-25T05:00:36.281Z,99116.75
2023-03-25T05:05:38.403Z,99130.25
2023-03-25T05:10:40.190Z,99136.97
2023-03-25T05:15:43.208Z,99148.72
2023-03-25T05:20:46.994Z,99161.34
2023-03-25T05:25:51.193Z,99175.63
2023-03-25T05:30:53.079Z,99173.94
2023-03-25T05:35:54.958Z,99158.81
2023-03-25T05:40:56.836Z,99157.97
2023-03-25T05:45:58.468Z,99160.47
2023-03-25T05:51:04.343Z,99166.38
2023-03-25T05:56:06.349Z,99163.84
2023-03-25T06:01:17.000Z,99172.19
2023-03-25T06:06:27.845Z,99179.69
2023-03-25T06:11:29.568Z,99188.84
2023-03-25T06:16:33.261Z,99197.13
2023-03-25T06:21:35.038Z,99191.13
2023-03-25T06:26:37.300Z,99202.63
2023-03-25T06:31:39.899Z,99220.94
2023-03-25T06:36:41.673Z,99227.69
2023-03-25T06:41:43.294Z,99215.09
2023-03-25T06:46:50.765Z,99231.03
2023-03-25T06:51:58.969Z,99225.97
2023-03-25T06:57:00.635Z,99227.69
2023-03-25T07:02:02.344Z,99225.13
2023-03-25T07:07:04.087Z,99209.13
2023-03-25T07:12:07.736Z,99199.75
2023-03-25T07:17:10.677Z,99193.59
2023-03-25T07:22:12.299Z,99192.88
2023-03-25T07:27:15.718Z,99187.06
2023-03-25T07:32:24.998Z,99184.44
2023-03-25T07:37:26.876Z,99177.81
2023-03-25T07:42:28.553Z,99172.66
2023-03-25T07:47:50.474Z,99172.50
2023-03-25T07:52:52.191Z,99161.56
2023-03-25T07:57:53.916Z,99183.28
2023-03-25T08:02:56.236Z,99162.72
2023-03-25T08:08:00.965Z,99171.69
2023-03-25T08:13:02.578Z,99153.84
2023-03-25T08:18:05.502Z,99145.25
2023-03-25T08:23:10.508Z,99173.19
2023-03-25T08:28:13.390Z,99157.22
2023-03-25T08:33:18.439Z,99170.94
2023-03-25T08:38:21.559Z,99175.25
2023-03-25T08:43:23.154Z,99175.97
2023-03-25T08:48:24.899Z,99168.25
2023-03-25T08:53:27.181Z,99169.97
2023-03-25T08:58:28.839Z,99170.72
2023-03-25T09:03:30.554Z,99190.09
2023-03-25T09:08:33.116Z,99188.25
2023-03-25T09:13:34.717Z,99199.72
2023-03-25T09:18:36.827Z,99184.50
2023-03-25T09:23:38.444Z,99189.44
2023-03-25T09:28:40.223Z,99195.28
2023-03-25T09:33:42.032Z,99202.63
2023-03-25T09:38:43.807Z,99200.00
2023-03-25T09:44:05.947Z,99190.81
2023-03-25T09:49:21.515Z,99189.19
2023-03-25T09:54:27.861Z,99196.66
2023-03-25T09:59:41.960Z,99195.03
2023-03-25T10:05:03.768Z,99195.81
2023-03-25T10:10:38.166Z,99181.06
2023-03-25T10:15:49.243Z,99191.13
2023-03-25T10:21:29.634Z,99201.00
2023-03-25T10:26:42.774Z,99185.06
2023-03-25T10:31:56.133Z,99184.94
2023-03-25T10:37:10.339Z,99182.41
2023-03-25T10:42:30.558Z,99188.47
2023-03-25T10:47:38.698Z,99205.88
2023-03-25T10:52:40.843Z,99212.19
2023-03-25T10:57:43.034Z,99218.06
2023-03-25T11:02:46.402Z,99224.91
2023-03-25T11:07:55.090Z,99251.78
2023-03-25T11:13:01.744Z,99234.50
2023-03-25T11:18:22.172Z,99241.16
2023-03-25T11:23:51.836Z,99242.63
2023-03-25T11:28:56.028Z,99241.63
2023-03-25T11:34:20.107Z,99225.03
2023-03-25T11:39:40.062Z,99238.25
2023-03-25T11:44:42.104Z,99223.88
2023-03-25T11:49:49.379Z,99220.16
2023-03-25T11:54:53.703Z,99203.69
2023-03-25T12:00:08.256Z,99181.88
2023-03-25T12:05:16.556Z,99174.31
2023-03-25T12:10:39.824Z,99167.34
2023-03-25T12:15:49.576Z,99164.31
2023-03-25T12:21:02.172Z,99155.38
2023-03-25T12:26:13.121Z,99160.72
2023-03-25T12:31:29.927Z,99148.22
2023-03-25T12:36:31.873Z,99151.72
2023-03-25T12:42:10.854Z,99147.06
2023-03-25T12:47:23.713Z,99158.00
2023-03-25T12:52:43.468Z,99153.72
2023-03-25T12:58:23.569Z,99128.25
2023-03-25T13:03:34.454Z,99124.44
2023-03-25T13:08:41.920Z,99123.94
2023-03-25T13:13:46.257Z,99117.25
2023-03-25T13:18:54.056Z,99111.81
2023-03-25T13:24:01.585Z,99112.41
2023-03-25T13:29:05.577Z,99098.56
2023-03-25T13:34:30.691Z,99102.78
2023-03-25T13:39:54.503Z,99104.38
2023-03-25T13:44:59.147Z,99091.50
2023-03-25T13:50:05.736Z,99083.75
2023-03-25T13:55:16.888Z,99099.66
2023-03-25T14:00:36.732Z,99090.16
2023-03-25T14:06:02.773Z,99078.59
2023-03-25T14:11:29.176Z,99082.31
2023-03-25T14:16:36.223Z,99071.13
2023-03-25T14:21:38.370Z,99083.47
2023-03-25T14:26:50.477Z,99083.47
2023-03-25T14:32:16.675Z,99073.91
2023-03-25T14:37:27.131Z,99068.22
2023-03-25T14:42:43.165Z,99068.06
2023-03-25T14:47:55.847Z,99061.56
2023-03-25T14:53:02.915Z,99052.56
2023-03-25T14:58:26.201Z,99068.56
2023-03-25T15:03:34.878Z,99048.34
2023-03-25T15:08:40.400Z,99045.69
2023-03-25T15:13:52.805Z,99052.31
2023-03-25T15:18:54.717Z,99043.28
2023-03-25T15:24:11.901Z,99061.03
2023-03-25T15:29:17.322Z,99051.94
2023-03-25T15:34:50.916Z,99050.47
2023-03-25T15:40:13.783Z,99041.25
2023-03-25T15:45:30.789Z,99038.38
2023-03-25T15:50:53.131Z,99047.34
2023-03-25T15:56:21.671Z,99041.63
2023-03-25T16:01:32.788Z,99030.50
2023-03-25T16:06:40.840Z,99027.19
2023-03-25T16:11:46.202Z,99035.69
2023-03-25T16:16:55.068Z,99035.03
2023-03-25T16:22:02.404Z,99026.69
2023-03-25T16:27:12.350Z,99038.06
2023-03-25T16:32:20.929Z,99047.75
2023-03-25T16:37:22.847Z,99048.03
2023-03-25T16:42:28.057Z,99047.72
2023-03-25T16:47:33.756Z,99064.91
2023-03-25T16:52:37.162Z,99094.69
2023-03-25T16:57:40.764Z,99111.66
2023-03-25T17:02:43.416Z,99161.88
2023-03-25T17:07:51.060Z,99207.50
2023-03-25T17:12:59.500Z,99219.47
2023-03-25T17:18:03.671Z,99242.31
2023-03-25T17:23:16.155Z,99271.03
2023-03-25T17:28:33.997Z,99304.72
2023-03-25T17:33:39.124Z,99323.69
2023-03-25T17:38:46.342Z,99306.91
2023-03-25T17:43:51.157Z,99311.91
2023-03-25T17:48:55.338Z,99303.56
2023-03-25T17:53:57.539Z,99317.84
2023-03-25T17:59:05.003Z,99312.00
2023-03-25T18:04:06.866Z,99308.63
2023-03-25T18:09:20.586Z,99327.09
2023-03-25T18:14:24.124Z,99333.81
2023-03-25T18:19:31.362Z,99337.19
2023-03-25T18:24:34.139Z,99332.97
2023-03-25T18:29:37.524Z,99336.31
2023-03-25T18:34:39.231Z,99345.53
2023-03-25T18:39:41.016Z,99343.00
2023-03-25T18:44:42.684Z,99360.56
2023-03-25T18:49:44.322Z,99363.91
2023-03-25T18:54:45.953Z,99370.59
2023-03-25T18:59:47.587Z,99355.47
2023-03-25T19:05:00.211Z,99354.63
2023-03-25T19:10:02.490Z,99352.00
2023-03-25T19:15:04.633Z,99353.66
2023-03-25T19:20:07.591Z,99358.63
2023-03-25T19:25:09.540Z,99367.81
2023-03-25T19:30:15.406Z,99368.69
2023-03-25T19:35:19.278Z,99378.72
2023-03-25T19:40:24.054Z,99388.81
2023-03-25T19:45:27.287Z,99381.25
2023-03-25T19:50:33.305Z,99377.09
2023-03-25T19:55:35.203Z,99372.03
2023-03-25T20:00:37.023Z,99349.41
2023-03-25T20:05:38.874Z,99350.28
2023-03-25T20:10:41.347Z,99348.56
2023-03-25T20:15:43.043Z,99338.53
2023-03-25T20:20:44.703Z,99319.31
2023-03-25T20:25:47.398Z,99315.13
2023-03-25T20:30:49.000Z,99320.94
2023-03-25T20:35:51.245Z,99325.97
2023-03-25T20:40:54.477Z,99340.28
2023-03-25T20:45:56.909Z,99347.09
2023-03-25T20:51:00.966Z,99352.09
2023-03-25T20:56:04.254Z,99350.38
2023-03-25T21:01:06.012Z,99363.84
2023-03-25T21:06:20.963Z,99360.38
2023-03-25T21:11:25.913Z,99347.72
2023-03-25T21:16:27.764Z,99360.16
2023-03-25T21:21:30.787Z,99361.78
2023-03-25T21:26:33.282Z,99374.28
2023-03-25T21:31:35.025Z,99368.38
2023-03-25T21:36:36.868Z,99358.25
2023-03-25T21:41:38.753Z,99354.94
2023-03-25T21:46:40.917Z,99360.78
2023-03-25T21:51:44.223Z,99375.84
2023-03-25T21:56:47.129Z,99348.19
2023-03-25T22:01:48.836Z,99354.03
2023-03-25T22:06:50.535Z,99366.63
2023-03-25T22:11:52.258Z,99367.53
2023-03-25T22:16:54.098Z,99361.66
2023-03-25T22:21:56.487Z,99356.56
2023-03-25T22:26:58.244Z,99353.25
2023-03-25T22:32:06.989Z,99357.41
2023-03-25T22:37:08.856Z,99358.19
2023-03-25T22:42:10.838Z,99364.81
2023-03-25T22:47:12.588Z,99362.25
2023-03-25T22:52:14.275Z,99356.41
2023-03-25T22:57:16.302Z,99363.06
2023-03-25T23:02:18.575Z,99363.94
2023-03-25T23:07:20.299Z,99363.91
2023-03-25T23:17:26.455Z,99355.72
2023-03-25T23:22:28.098Z,99359.09
2023-03-25T23:27:30.630Z,99359.16
2023-03-25T23:32:35.096Z,99358.34
2023-03-25T23:37:36.748Z,99349.97
2023-03-25T23:42:38.717Z,99348.28
2023-03-25T23:47:40.374Z,99346.66
2023-03-25T23:52:42.013Z,99330.81
2023-03-25T23:57:43.667Z,99330.75
